Buffalo, NY

9:20 AM EST on December 25, 2014 (GMT -0500)
Cattaraugus County-Olean | Change Station
CLOSE
Current Station
Airport
Location: Olean,
Elevation: 2136 ft
Nearby Weather Stations

Elev 2136 ft 42.24 °N, 78.37 °W | Updated 5 minutes ago

Overcast
Overcast
32 °F
Feels Like 23 °F
N
12
Wind Variable Wind from West
Gusts 18 mph

Today
High -- | Low -- °F
--% Chance of Precip.
Yesterday
High -- | Low -- °F
Precip. -- in
7:44 AM 4:46 PM
Waxing Crescent, 16% visible
Pressure 29.68 in
Visibility 1.2 miles
Clouds Overcast 700 ft
Windchill 23 °F
Dew Point 32 °F
Humidity 100%
Rainfall 0.00 in
Snow Depth Not available.
UV 0 out of 12
Pollen .10 out of 12
Air Quality Not available.
Flu Activity Not available.
METAR KOLE 251415Z AUTO 26010G16KT 220V300 1 1/4SM -SN OVC007 00/00 A2968 RMK AO2

More Conditions Fewer Conditions

Pressure 29.68 in
Visibility 1.2 miles
Clouds Overcast 700 ft
Windchill 23 °F
Dew Point 32 °F
Humidity 100%
Rainfall 0.00 in
Snow Depth Not available.
UV 0 out of 12
Pollen .10 out of 12
Air Quality Not available.
Flu Activity Not available.
METAR KOLE 251415Z AUTO 26010G16KT 220V300 1 1/4SM -SN OVC007 00/00 A2968 RMK AO2

More Conditions Fewer Conditions

10-Day Weather Forecast

Almanac

Astronomy

Dec. 25, 2014 Rise Set
Actual Time
Civil Twilight
Nautical Twilight
Astronomical Twilight
Moon
Length of Visible Light
Length of Day
Tomorrow will be .
, % of the Moon is Illuminated

Today's Extremes

State Highs State Lows

Community

WunderPhotos

Upload Photos

1,780,276 photos uploaded!

WunderBlogs® & News

Nearby

Air Quality

  Air Quality AQ Index Pollutant
Not available.

Snow Depth

Station Depth Elevation

Earthquake Activity

City Distance Mag. Time & Date
Minimum magnitude displayed is 2.5.

Coastal Water Temperatures

Place Temperature

Nearby Weather Stations